sensor_id;sensor_type;location;lat;lon;timestamp;temperature;humidity
55648;DHT22;45266;48.756;9.246;2023-06-22T00:00:08;19.30;99.90
55648;DHT22;45266;48.756;9.246;2023-06-22T00:01:14;19.30;99.90
55648;DHT22;45266;48.756;9.246;2023-06-22T00:02:16;19.30;99.90
55648;DHT22;45266;48.756;9.246;2023-06-22T00:03:19;19.30;99.90
55648;DHT22;45266;48.756;9.246;2023-06-22T00:04:21;19.30;99.90
55648;DHT22;45266;48.756;9.246;2023-06-22T00:05:23;19.30;99.90
55648;DHT22;45266;48.756;9.246;2023-06-22T00:06:25;19.30;99.90
55648;DHT22;45266;48.756;9.246;2023-06-22T00:07:27;19.20;99.90
55648;DHT22;45266;48.756;9.246;2023-06-22T00:08:28;19.20;99.90
55648;DHT22;45266;48.756;9.246;2023-06-22T00:09:31;19.20;99.90
55648;DHT22;45266;48.756;9.246;2023-06-22T00:10:33;19.20;99.90
55648;DHT22;45266;48.756;9.246;2023-06-22T00:11:35;19.20;99.90
55648;DHT22;45266;48.756;9.246;2023-06-22T00:12:37;19.20;99.90
55648;DHT22;45266;48.756;9.246;2023-06-22T00:13:39;19.20;99.90
55648;DHT22;45266;48.756;9.246;2023-06-22T00:14:41;19.20;99.90
55648;DHT22;45266;48.756;9.246;2023-06-22T00:15:43;19.10;99.90
55648;DHT22;45266;48.756;9.246;2023-06-22T00:16:45;19.10;99.90
55648;DHT22;45266;48.756;9.246;2023-06-22T00:17:50;19.10;99.90
55648;DHT22;45266;48.756;9.246;2023-06-22T00:18:52;19.10;99.90
55648;DHT22;45266;48.756;9.246;2023-06-22T00:19:54;19.10;99.90
55648;DHT22;45266;48.756;9.246;2023-06-22T00:20:56;19.10;99.90
55648;DHT22;45266;48.756;9.246;2023-06-22T00:21:59;19.00;99.90
55648;DHT22;45266;48.756;9.246;2023-06-22T00:23:02;19.00;99.90
55648;DHT22;45266;48.756;9.246;2023-06-22T00:24:10;19.00;99.90
55648;DHT22;45266;48.756;9.246;2023-06-22T00:25:12;19.00;99.90
55648;DHT22;45266;48.756;9.246;2023-06-22T00:26:14;19.00;99.90
55648;DHT22;45266;48.756;9.246;2023-06-22T00:27:16;19.00;99.90
55648;DHT22;45266;48.756;9.246;2023-06-22T00:28:17;19.00;99.90
55648;DHT22;45266;48.756;9.246;2023-06-22T00:29:19;19.00;99.90
55648;DHT22;45266;48.756;9.246;2023-06-22T00:30:23;19.00;99.90
55648;DHT22;45266;48.756;9.246;2023-06-22T00:31:26;18.90;99.90
55648;DHT22;45266;48.756;9.246;2023-06-22T00:32:28;19.00;99.90
55648;DHT22;45266;48.756;9.246;2023-06-22T00:33:29;19.00;99.90
55648;DHT22;45266;48.756;9.246;2023-06-22T00:34:31;19.00;99.90
55648;DHT22;45266;48.756;9.246;2023-06-22T00:35:33;19.00;99.90
55648;DHT22;45266;48.756;9.246;2023-06-22T00:36:36;19.00;99.90
55648;DHT22;45266;48.756;9.246;2023-06-22T00:37:38;19.00;99.90
55648;DHT22;45266;48.756;9.246;2023-06-22T00:38:43;19.00;99.90
55648;DHT22;45266;48.756;9.246;2023-06-22T00:39:45;19.00;99.90
55648;DHT22;45266;48.756;9.246;2023-06-22T00:40:47;19.00;99.90
55648;DHT22;45266;48.756;9.246;2023-06-22T00:41:48;19.00;99.90
55648;DHT22;45266;48.756;9.246;2023-06-22T00:42:50;19.00;99.90
55648;DHT22;45266;48.756;9.246;2023-06-22T00:43:52;18.90;99.90
55648;DHT22;45266;48.756;9.246;2023-06-22T00:44:54;19.00;99.90
55648;DHT22;45266;48.756;9.246;2023-06-22T00:45:56;19.00;99.90
55648;DHT22;45266;48.756;9.246;2023-06-22T00:46:58;19.00;99.90
55648;DHT22;45266;48.756;9.246;2023-06-22T00:48:02;19.00;99.90
55648;DHT22;45266;48.756;9.246;2023-06-22T00:49:04;19.00;99.90
55648;DHT22;45266;48.756;9.246;2023-06-22T00:50:07;19.00;99.90
55648;DHT22;45266;48.756;9.246;2023-06-22T00:51:11;18.90;99.90
55648;DHT22;45266;48.756;9.246;2023-06-22T00:52:13;19.00;99.90
55648;DHT22;45266;48.756;9.246;2023-06-22T00:53:15;19.00;99.90
55648;DHT22;45266;48.756;9.246;2023-06-22T00:54:20;18.90;99.90
55648;DHT22;45266;48.756;9.246;2023-06-22T00:55:26;18.90;99.90
55648;DHT22;45266;48.756;9.246;2023-06-22T00:56:28;18.90;99.90
55648;DHT22;45266;48.756;9.246;2023-06-22T00:57:32;18.80;99.90
55648;DHT22;45266;48.756;9.246;2023-06-22T00:58:35;18.80;99.90
55648;DHT22;45266;48.756;9.246;2023-06-22T00:59:37;18.80;99.90
55648;DHT22;45266;48.756;9.246;2023-06-22T01:00:40;18.80;99.90
55648;DHT22;45266;48.756;9.246;2023-06-22T01:01:42;18.80;99.90
55648;DHT22;45266;48.756;9.246;2023-06-22T01:02:44;18.80;99.90
55648;DHT22;45266;48.756;9.246;2023-06-22T01:03:53;18.80;99.90
55648;DHT22;45266;48.756;9.246;2023-06-22T01:04:58;18.80;99.90
55648;DHT22;45266;48.756;9.246;2023-06-22T01:06:09;18.80;99.90
55648;DHT22;45266;48.756;9.246;2023-06-22T01:07:23;18.70;99.90
55648;DHT22;45266;48.756;9.246;2023-06-22T01:08:48;18.70;99.90
55648;DHT22;45266;48.756;9.246;2023-06-22T01:09:57;18.70;99.90
55648;DHT22;45266;48.756;9.246;2023-06-22T01:11:14;18.70;99.90
55648;DHT22;45266;48.756;9.246;2023-06-22T01:12:18;18.70;99.90
55648;DHT22;45266;48.756;9.246;2023-06-22T01:13:45;18.70;99.90
55648;DHT22;45266;48.756;9.246;2023-06-22T01:15:08;18.70;99.90
55648;DHT22;45266;48.756;9.246;2023-06-22T01:16:23;18.80;99.90
55648;DHT22;45266;48.756;9.246;2023-06-22T01:17:26;18.90;99.90
55648;DHT22;45266;48.756;9.246;2023-06-22T01:18:31;18.80;99.90
55648;DHT22;45266;48.756;9.246;2023-06-22T01:20:48;18.80;99.90
55648;DHT22;45266;48.756;9.246;2023-06-22T01:21:53;18.90;99.90
55648;DHT22;45266;48.756;9.246;2023-06-22T01:24:55;18.80;99.90
55648;DHT22;45266;48.756;9.246;2023-06-22T01:28:50;18.80;99.90
55648;DHT22;45266;48.756;9.246;2023-06-22T01:29:56;18.80;99.90
55648;DHT22;45266;48.756;9.246;2023-06-22T01:31:03;18.80;99.90
55648;DHT22;45266;48.756;9.246;2023-06-22T01:32:07;18.80;99.90
55648;DHT22;45266;48.756;9.246;2023-06-22T01:33:13;18.80;99.90
55648;DHT22;45266;48.756;9.246;2023-06-22T01:34:16;18.80;99.90
55648;DHT22;45266;48.756;9.246;2023-06-22T01:35:20;18.80;99.90
55648;DHT22;45266;48.756;9.246;2023-06-22T01:36:24;18.70;99.90
55648;DHT22;45266;48.756;9.246;2023-06-22T01:37:28;18.70;99.90
55648;DHT22;45266;48.756;9.246;2023-06-22T01:38:30;18.70;99.90
55648;DHT22;45266;48.756;9.246;2023-06-22T01:39:33;18.70;99.90
55648;DHT22;45266;48.756;9.246;2023-06-22T01:40:36;18.70;99.90
55648;DHT22;45266;48.756;9.246;2023-06-22T01:41:39;18.80;99.90
55648;DHT22;45266;48.756;9.246;2023-06-22T01:42:44;18.80;99.90
55648;DHT22;45266;48.756;9.246;2023-06-22T01:43:47;18.70;99.90
55648;DHT22;45266;48.756;9.246;2023-06-22T01:44:49;18.70;99.90
55648;DHT22;45266;48.756;9.246;2023-06-22T01:45:51;18.70;99.90
55648;DHT22;45266;48.756;9.246;2023-06-22T01:46:54;18.70;99.90
55648;DHT22;45266;48.756;9.246;2023-06-22T01:47:57;18.70;99.90
55648;DHT22;45266;48.756;9.246;2023-06-22T01:48:59;18.60;99.90
55648;DHT22;45266;48.756;9.246;2023-06-22T01:50:01;18.60;99.90
55648;DHT22;45266;48.756;9.246;2023-06-22T01:51:03;18.60;99.90
55648;DHT22;45266;48.756;9.246;2023-06-22T01:52:06;18.60;99.90
55648;DHT22;45266;48.756;9.246;2023-06-22T01:53:08;18.60;99.90
55648;DHT22;45266;48.756;9.246;2023-06-22T01:54:10;18.60;99.90
55648;DHT22;45266;48.756;9.246;2023-06-22T01:55:12;18.60;99.90
55648;DHT22;45266;48.756;9.246;2023-06-22T01:56:17;18.60;99.90
55648;DHT22;45266;48.756;9.246;2023-06-22T01:57:20;18.60;99.90
55648;DHT22;45266;48.756;9.246;2023-06-22T01:58:25;18.60;99.90
55648;DHT22;45266;48.756;9.246;2023-06-22T02:00:53;18.60;99.90
55648;DHT22;45266;48.756;9.246;2023-06-22T02:02:04;18.50;99.90
55648;DHT22;45266;48.756;9.246;2023-06-22T02:03:21;18.50;99.90
55648;DHT22;45266;48.756;9.246;2023-06-22T02:04:36;18.50;99.90
55648;DHT22;45266;48.756;9.246;2023-06-22T02:05:49;18.50;99.90
55648;DHT22;45266;48.756;9.246;2023-06-22T02:06:56;18.50;99.90
55648;DHT22;45266;48.756;9.246;2023-06-22T02:08:13;18.50;99.90
55648;DHT22;45266;48.756;9.246;2023-06-22T02:09:21;18.50;99.90
55648;DHT22;45266;48.756;9.246;2023-06-22T02:10:24;18.50;99.90
55648;DHT22;45266;48.756;9.246;2023-06-22T02:11:30;18.50;99.90
55648;DHT22;45266;48.756;9.246;2023-06-22T02:12:33;18.40;99.90
55648;DHT22;45266;48.756;9.246;2023-06-22T02:13:36;18.50;99.90
55648;DHT22;45266;48.756;9.246;2023-06-22T02:14:39;18.50;99.90
55648;DHT22;45266;48.756;9.246;2023-06-22T02:15:42;18.50;99.90
55648;DHT22;45266;48.756;9.246;2023-06-22T02:16:44;18.50;99.90
55648;DHT22;45266;48.756;9.246;2023-06-22T02:17:48;18.50;99.90
55648;DHT22;45266;48.756;9.246;2023-06-22T02:18:51;18.50;99.90
55648;DHT22;45266;48.756;9.246;2023-06-22T02:19:53;18.50;99.90
55648;DHT22;45266;48.756;9.246;2023-06-22T02:20:55;18.50;99.90
55648;DHT22;45266;48.756;9.246;2023-06-22T02:21:57;18.50;99.90
55648;DHT22;45266;48.756;9.246;2023-06-22T02:22:59;18.50;99.90
55648;DHT22;45266;48.756;9.246;2023-06-22T02:24:00;18.40;99.90
55648;DHT22;45266;48.756;9.246;2023-06-22T02:25:02;18.40;99.90
55648;DHT22;45266;48.756;9.246;2023-06-22T02:26:04;18.40;99.90
55648;DHT22;45266;48.756;9.246;2023-06-22T02:27:06;18.40;99.90
55648;DHT22;45266;48.756;9.246;2023-06-22T02:28:08;18.40;99.90
55648;DHT22;45266;48.756;9.246;2023-06-22T02:29:10;18.30;99.90
55648;DHT22;45266;48.756;9.246;2023-06-22T02:30:13;18.40;99.90
55648;DHT22;45266;48.756;9.246;2023-06-22T02:31:16;18.40;99.90
55648;DHT22;45266;48.756;9.246;2023-06-22T02:32:18;18.40;99.90
55648;DHT22;45266;48.756;9.246;2023-06-22T02:33:20;18.40;99.90
55648;DHT22;45266;48.756;9.246;2023-06-22T02:34:22;18.40;99.90
55648;DHT22;45266;48.756;9.246;2023-06-22T02:35:28;18.40;99.90
55648;DHT22;45266;48.756;9.246;2023-06-22T02:36:33;18.40;99.90
55648;DHT22;45266;48.756;9.246;2023-06-22T02:37:36;18.40;99.90
55648;DHT22;45266;48.756;9.246;2023-06-22T02:38:43;18.30;99.90
55648;DHT22;45266;48.756;9.246;2023-06-22T02:39:49;18.30;99.90
55648;DHT22;45266;48.756;9.246;2023-06-22T02:40:51;18.30;99.90
55648;DHT22;45266;48.756;9.246;2023-06-22T02:41:54;18.30;99.90
55648;DHT22;45266;48.756;9.246;2023-06-22T02:42:56;18.30;99.90
55648;DHT22;45266;48.756;9.246;2023-06-22T02:43:59;18.30;99.90
55648;DHT22;45266;48.756;9.246;2023-06-22T02:45:01;18.30;99.90
55648;DHT22;45266;48.756;9.246;2023-06-22T02:46:03;18.30;99.90
55648;DHT22;45266;48.756;9.246;2023-06-22T02:47:05;18.30;99.90
55648;DHT22;45266;48.756;9.246;2023-06-22T02:48:07;18.30;99.90
55648;DHT22;45266;48.756;9.246;2023-06-22T02:49:10;18.30;99.90
55648;DHT22;45266;48.756;9.246;2023-06-22T02:50:12;18.30;99.90
55648;DHT22;45266;48.756;9.246;2023-06-22T02:51:14;18.30;99.90
55648;DHT22;45266;48.756;9.246;2023-06-22T02:52:16;18.30;99.90
55648;DHT22;45266;48.756;9.246;2023-06-22T02:53:18;18.20;99.90
55648;DHT22;45266;48.756;9.246;2023-06-22T02:54:21;18.20;99.90
55648;DHT22;45266;48.756;9.246;2023-06-22T02:55:23;18.20;99.90
55648;DHT22;45266;48.756;9.246;2023-06-22T02:56:25;18.20;99.90
55648;DHT22;45266;48.756;9.246;2023-06-22T02:57:27;18.20;99.90
55648;DHT22;45266;48.756;9.246;2023-06-22T02:58:28;18.20;99.90
55648;DHT22;45266;48.756;9.246;2023-06-22T02:59:30;18.20;99.90
55648;DHT22;45266;48.756;9.246;2023-06-22T03:00:35;18.20;99.90
55648;DHT22;45266;48.756;9.246;2023-06-22T03:01:37;18.20;99.90
55648;DHT22;45266;48.756;9.246;2023-06-22T03:02:43;18.20;99.90
55648;DHT22;45266;48.756;9.246;2023-06-22T03:03:46;18.20;99.90
55648;DHT22;45266;48.756;9.246;2023-06-22T03:04:48;18.20;99.90
55648;DHT22;45266;48.756;9.246;2023-06-22T03:05:50;18.10;99.90
55648;DHT22;45266;48.756;9.246;2023-06-22T03:06:54;18.10;99.90
55648;DHT22;45266;48.756;9.246;2023-06-22T03:07:56;18.10;99.90
55648;DHT22;45266;48.756;9.246;2023-06-22T03:09:03;18.10;99.90
55648;DHT22;45266;48.756;9.246;2023-06-22T03:10:06;18.00;99.90
55648;DHT22;45266;48.756;9.246;2023-06-22T03:11:08;18.00;99.90
55648;DHT22;45266;48.756;9.246;2023-06-22T03:12:10;18.00;99.90
55648;DHT22;45266;48.756;9.246;2023-06-22T03:13:12;18.00;99.90
55648;DHT22;45266;48.756;9.246;2023-06-22T03:14:14;18.00;99.90
55648;DHT22;45266;48.756;9.246;2023-06-22T03:15:16;18.00;99.90
55648;DHT22;45266;48.756;9.246;2023-06-22T03:16:19;18.00;99.90
55648;DHT22;45266;48.756;9.246;2023-06-22T03:17:21;18.00;99.90
55648;DHT22;45266;48.756;9.246;2023-06-22T03:18:22;18.00;99.90
55648;DHT22;45266;48.756;9.246;2023-06-22T03:19:24;18.00;99.90
55648;DHT22;45266;48.756;9.246;2023-06-22T03:20:26;18.00;99.90
55648;DHT22;45266;48.756;9.246;2023-06-22T03:21:35;18.10;99.90
55648;DHT22;45266;48.756;9.246;2023-06-22T03:22:40;18.00;99.90
55648;DHT22;45266;48.756;9.246;2023-06-22T03:23:42;18.00;99.90
55648;DHT22;45266;48.756;9.246;2023-06-22T03:24:44;18.00;99.90
55648;DHT22;45266;48.756;9.246;2023-06-22T03:25:46;17.90;99.90
55648;DHT22;45266;48.756;9.246;2023-06-22T03:26:48;17.90;99.90
55648;DHT22;45266;48.756;9.246;2023-06-22T03:27:50;17.90;99.90
55648;DHT22;45266;48.756;9.246;2023-06-22T03:28:52;17.90;99.90
55648;DHT22;45266;48.756;9.246;2023-06-22T03:29:56;17.90;99.90
55648;DHT22;45266;48.756;9.246;2023-06-22T03:30:58;17.90;99.90
55648;DHT22;45266;48.756;9.246;2023-06-22T03:32:00;17.90;99.90
55648;DHT22;45266;48.756;9.246;2023-06-22T03:33:03;17.80;99.90
55648;DHT22;45266;48.756;9.246;2023-06-22T03:34:04;17.80;99.90
55648;DHT22;45266;48.756;9.246;2023-06-22T03:35:07;17.80;99.90
55648;DHT22;45266;48.756;9.246;2023-06-22T03:36:09;17.80;99.90
55648;DHT22;45266;48.756;9.246;2023-06-22T03:37:11;17.80;99.90
55648;DHT22;45266;48.756;9.246;2023-06-22T03:38:13;17.80;99.90
55648;DHT22;45266;48.756;9.246;2023-06-22T03:39:15;17.80;99.90
55648;DHT22;45266;48.756;9.246;2023-06-22T03:40:17;17.80;99.90
55648;DHT22;45266;48.756;9.246;2023-06-22T03:41:19;17.80;99.90
55648;DHT22;45266;48.756;9.246;2023-06-22T03:42:21;17.80;99.90
55648;DHT22;45266;48.756;9.246;2023-06-22T03:43:23;17.80;99.90
55648;DHT22;45266;48.756;9.246;2023-06-22T03:44:25;17.80;99.90
55648;DHT22;45266;48.756;9.246;2023-06-22T03:45:26;17.80;99.90
55648;DHT22;45266;48.756;9.246;2023-06-22T03:46:29;17.80;99.90
55648;DHT22;45266;48.756;9.246;2023-06-22T03:47:31;17.80;99.90
55648;DHT22;45266;48.756;9.246;2023-06-22T03:48:33;17.80;99.90
55648;DHT22;45266;48.756;9.246;2023-06-22T03:49:35;17.80;99.90
55648;DHT22;45266;48.756;9.246;2023-06-22T03:50:37;17.80;99.90
55648;DHT22;45266;48.756;9.246;2023-06-22T03:51:39;17.80;99.90
55648;DHT22;45266;48.756;9.246;2023-06-22T03:52:41;17.80;99.90
55648;DHT22;45266;48.756;9.246;2023-06-22T03:53:43;17.80;99.90
55648;DHT22;45266;48.756;9.246;2023-06-22T03:54:45;17.80;99.90
55648;DHT22;45266;48.756;9.246;2023-06-22T03:55:51;17.80;99.90
55648;DHT22;45266;48.756;9.246;2023-06-22T03:56:53;17.80;99.90
55648;DHT22;45266;48.756;9.246;2023-06-22T03:57:55;17.80;99.90
55648;DHT22;45266;48.756;9.246;2023-06-22T03:58:58;17.80;99.90
55648;DHT22;45266;48.756;9.246;2023-06-22T04:00:01;17.90;99.90
55648;DHT22;45266;48.756;9.246;2023-06-22T04:01:07;17.90;99.90
55648;DHT22;45266;48.756;9.246;2023-06-22T04:02:09;17.90;99.90
55648;DHT22;45266;48.756;9.246;2023-06-22T04:03:11;17.90;99.90
55648;DHT22;45266;48.756;9.246;2023-06-22T04:04:14;17.90;99.90
55648;DHT22;45266;48.756;9.246;2023-06-22T04:05:16;17.90;99.90
55648;DHT22;45266;48.756;9.246;2023-06-22T04:06:20;17.90;99.90
55648;DHT22;45266;48.756;9.246;2023-06-22T04:07:24;17.90;99.90
55648;DHT22;45266;48.756;9.246;2023-06-22T04:08:26;17.90;99.90
55648;DHT22;45266;48.756;9.246;2023-06-22T04:09:28;17.90;99.90
55648;DHT22;45266;48.756;9.246;2023-06-22T04:10:30;18.00;99.90
55648;DHT22;45266;48.756;9.246;2023-06-22T04:11:31;18.00;99.90
55648;DHT22;45266;48.756;9.246;2023-06-22T04:12:33;18.00;99.90
55648;DHT22;45266;48.756;9.246;2023-06-22T04:13:35;18.00;99.90
55648;DHT22;45266;48.756;9.246;2023-06-22T04:14:37;18.00;99.90
55648;DHT22;45266;48.756;9.246;2023-06-22T04:15:39;18.00;99.90
55648;DHT22;45266;48.756;9.246;2023-06-22T04:16:41;18.00;99.90
55648;DHT22;45266;48.756;9.246;2023-06-22T04:17:44;18.00;99.90
55648;DHT22;45266;48.756;9.246;2023-06-22T04:18:46;18.00;99.90
55648;DHT22;45266;48.756;9.246;2023-06-22T04:19:48;18.00;99.90
55648;DHT22;45266;48.756;9.246;2023-06-22T04:20:50;18.10;99.90
55648;DHT22;45266;48.756;9.246;2023-06-22T04:21:52;18.20;99.90
55648;DHT22;45266;48.756;9.246;2023-06-22T04:22:54;18.20;99.90
55648;DHT22;45266;48.756;9.246;2023-06-22T04:23:56;18.20;99.90
55648;DHT22;45266;48.756;9.246;2023-06-22T04:24:58;18.30;99.90
55648;DHT22;45266;48.756;9.246;2023-06-22T04:26:00;18.30;99.90
55648;DHT22;45266;48.756;9.246;2023-06-22T04:27:02;18.30;99.90
55648;DHT22;45266;48.756;9.246;2023-06-22T04:28:04;18.30;99.90
55648;DHT22;45266;48.756;9.246;2023-06-22T04:29:06;18.30;99.90
55648;DHT22;45266;48.756;9.246;2023-06-22T04:30:10;18.40;99.90
55648;DHT22;45266;48.756;9.246;2023-06-22T04:31:12;18.40;99.90
55648;DHT22;45266;48.756;9.246;2023-06-22T04:32:17;18.40;99.90
55648;DHT22;45266;48.756;9.246;2023-06-22T04:33:19;18.50;99.90
55648;DHT22;45266;48.756;9.246;2023-06-22T04:34:21;18.50;99.90
55648;DHT22;45266;48.756;9.246;2023-06-22T04:35:26;18.50;99.90
55648;DHT22;45266;48.756;9.246;2023-06-22T04:36:29;18.50;99.90
55648;DHT22;45266;48.756;9.246;2023-06-22T04:37:39;18.60;99.90
55648;DHT22;45266;48.756;9.246;2023-06-22T04:38:41;18.60;99.90
55648;DHT22;45266;48.756;9.246;2023-06-22T04:39:44;18.70;99.90
55648;DHT22;45266;48.756;9.246;2023-06-22T04:40:46;18.60;99.90
55648;DHT22;45266;48.756;9.246;2023-06-22T04:41:47;18.70;99.90
55648;DHT22;45266;48.756;9.246;2023-06-22T04:42:49;18.70;99.90
55648;DHT22;45266;48.756;9.246;2023-06-22T04:43:55;18.70;99.90
55648;DHT22;45266;48.756;9.246;2023-06-22T04:45:02;18.70;99.90
55648;DHT22;45266;48.756;9.246;2023-06-22T04:46:04;18.70;99.90
55648;DHT22;45266;48.756;9.246;2023-06-22T04:47:06;18.70;99.90
55648;DHT22;45266;48.756;9.246;2023-06-22T04:48:10;18.70;99.90
55648;DHT22;45266;48.756;9.246;2023-06-22T04:49:17;18.70;99.90
55648;DHT22;45266;48.756;9.246;2023-06-22T04:50:19;18.70;99.90
55648;DHT22;45266;48.756;9.246;2023-06-22T04:51:22;18.70;99.90
55648;DHT22;45266;48.756;9.246;2023-06-22T04:52:25;18.80;99.90
55648;DHT22;45266;48.756;9.246;2023-06-22T04:53:27;18.80;99.90
55648;DHT22;45266;48.756;9.246;2023-06-22T04:54:31;18.80;99.90
55648;DHT22;45266;48.756;9.246;2023-06-22T04:55:36;18.90;99.90
55648;DHT22;45266;48.756;9.246;2023-06-22T04:56:39;18.90;99.90
55648;DHT22;45266;48.756;9.246;2023-06-22T04:57:42;18.90;99.90
55648;DHT22;45266;48.756;9.246;2023-06-22T04:58:50;19.00;99.90
55648;DHT22;45266;48.756;9.246;2023-06-22T04:59:53;19.00;99.90
55648;DHT22;45266;48.756;9.246;2023-06-22T05:00:55;19.10;99.90
55648;DHT22;45266;48.756;9.246;2023-06-22T05:02:00;19.20;99.90
55648;DHT22;45266;48.756;9.246;2023-06-22T05:03:03;19.20;99.90
55648;DHT22;45266;48.756;9.246;2023-06-22T05:04:20;19.20;99.90
55648;DHT22;45266;48.756;9.246;2023-06-22T05:05:22;19.30;99.90
55648;DHT22;45266;48.756;9.246;2023-06-22T05:06:24;19.40;99.90
55648;DHT22;45266;48.756;9.246;2023-06-22T05:07:26;19.40;99.90
55648;DHT22;45266;48.756;9.246;2023-06-22T05:08:28;19.40;99.90
55648;DHT22;45266;48.756;9.246;2023-06-22T05:09:30;19.40;99.90
55648;DHT22;45266;48.756;9.246;2023-06-22T05:10:33;19.50;99.90
55648;DHT22;45266;48.756;9.246;2023-06-22T05:11:35;19.60;99.90
55648;DHT22;45266;48.756;9.246;2023-06-22T05:12:37;19.60;99.90
55648;DHT22;45266;48.756;9.246;2023-06-22T05:13:39;19.60;99.90
55648;DHT22;45266;48.756;9.246;2023-06-22T05:14:41;19.70;99.90
55648;DHT22;45266;48.756;9.246;2023-06-22T05:15:43;19.70;99.90
55648;DHT22;45266;48.756;9.246;2023-06-22T05:16:46;19.90;99.90
55648;DHT22;45266;48.756;9.246;2023-06-22T05:17:48;19.90;99.90
55648;DHT22;45266;48.756;9.246;2023-06-22T05:18:59;19.90;99.90
55648;DHT22;45266;48.756;9.246;2023-06-22T05:20:01;20.00;99.90
55648;DHT22;45266;48.756;9.246;2023-06-22T05:21:04;20.00;99.90
55648;DHT22;45266;48.756;9.246;2023-06-22T05:22:05;20.00;99.90
55648;DHT22;45266;48.756;9.246;2023-06-22T05:23:08;20.10;99.90
55648;DHT22;45266;48.756;9.246;2023-06-22T05:24:10;20.10;99.90
55648;DHT22;45266;48.756;9.246;2023-06-22T05:25:13;20.20;99.90
55648;DHT22;45266;48.756;9.246;2023-06-22T05:26:33;20.20;99.90
55648;DHT22;45266;48.756;9.246;2023-06-22T05:27:53;20.20;99.90
55648;DHT22;45266;48.756;9.246;2023-06-22T05:29:12;20.20;99.90
55648;DHT22;45266;48.756;9.246;2023-06-22T05:30:32;20.20;99.90
55648;DHT22;45266;48.756;9.246;2023-06-22T05:31:51;20.30;99.90
55648;DHT22;45266;48.756;9.246;2023-06-22T05:33:10;20.30;99.90
55648;DHT22;45266;48.756;9.246;2023-06-22T05:34:12;20.40;99.90
55648;DHT22;45266;48.756;9.246;2023-06-22T05:35:14;20.30;99.90
55648;DHT22;45266;48.756;9.246;2023-06-22T05:36:16;20.50;99.90
55648;DHT22;45266;48.756;9.246;2023-06-22T05:37:18;20.50;99.90
55648;DHT22;45266;48.756;9.246;2023-06-22T05:38:20;20.60;99.90
55648;DHT22;45266;48.756;9.246;2023-06-22T05:39:22;20.70;99.90
55648;DHT22;45266;48.756;9.246;2023-06-22T05:40:23;20.70;99.90
55648;DHT22;45266;48.756;9.246;2023-06-22T05:41:25;20.80;99.90
55648;DHT22;45266;48.756;9.246;2023-06-22T05:42:28;20.80;99.90
55648;DHT22;45266;48.756;9.246;2023-06-22T05:43:31;21.00;99.90
55648;DHT22;45266;48.756;9.246;2023-06-22T05:44:33;21.00;99.90
55648;DHT22;45266;48.756;9.246;2023-06-22T05:45:35;21.10;99.90
55648;DHT22;45266;48.756;9.246;2023-06-22T05:46:39;21.20;99.90
55648;DHT22;45266;48.756;9.246;2023-06-22T05:47:41;21.20;99.90
55648;DHT22;45266;48.756;9.246;2023-06-22T05:48:42;21.30;99.90
55648;DHT22;45266;48.756;9.246;2023-06-22T05:49:44;21.40;99.90
55648;DHT22;45266;48.756;9.246;2023-06-22T05:50:47;21.50;99.90
55648;DHT22;45266;48.756;9.246;2023-06-22T05:51:48;21.50;99.90
55648;DHT22;45266;48.756;9.246;2023-06-22T05:52:50;21.60;99.90
55648;DHT22;45266;48.756;9.246;2023-06-22T05:53:52;21.70;99.90
55648;DHT22;45266;48.756;9.246;2023-06-22T05:54:54;21.70;99.90
55648;DHT22;45266;48.756;9.246;2023-06-22T05:55:56;21.80;99.90
55648;DHT22;45266;48.756;9.246;2023-06-22T05:56:58;21.90;99.90
55648;DHT22;45266;48.756;9.246;2023-06-22T05:58:00;21.90;99.90
55648;DHT22;45266;48.756;9.246;2023-06-22T05:59:02;22.00;99.90
55648;DHT22;45266;48.756;9.246;2023-06-22T06:00:04;22.00;99.90
55648;DHT22;45266;48.756;9.246;2023-06-22T06:01:09;22.10;99.90
55648;DHT22;45266;48.756;9.246;2023-06-22T06:02:11;22.20;99.90
55648;DHT22;45266;48.756;9.246;2023-06-22T06:03:13;22.20;99.90
55648;DHT22;45266;48.756;9.246;2023-06-22T06:04:19;22.30;99.90
55648;DHT22;45266;48.756;9.246;2023-06-22T06:05:21;22.30;99.90
55648;DHT22;45266;48.756;9.246;2023-06-22T06:06:24;22.40;99.90
55648;DHT22;45266;48.756;9.246;2023-06-22T06:07:30;22.40;99.90
55648;DHT22;45266;48.756;9.246;2023-06-22T06:08:31;22.50;99.90
55648;DHT22;45266;48.756;9.246;2023-06-22T06:09:33;22.50;99.90
55648;DHT22;45266;48.756;9.246;2023-06-22T06:10:35;22.50;99.90
55648;DHT22;45266;48.756;9.246;2023-06-22T06:11:37;22.60;99.90
55648;DHT22;45266;48.756;9.246;2023-06-22T06:12:39;22.60;99.90
55648;DHT22;45266;48.756;9.246;2023-06-22T06:13:41;22.70;99.90
55648;DHT22;45266;48.756;9.246;2023-06-22T06:14:43;22.80;99.90
55648;DHT22;45266;48.756;9.246;2023-06-22T06:15:45;22.80;99.90
55648;DHT22;45266;48.756;9.246;2023-06-22T06:16:49;22.80;99.90
55648;DHT22;45266;48.756;9.246;2023-06-22T06:17:52;22.80;99.90
55648;DHT22;45266;48.756;9.246;2023-06-22T06:18:54;22.90;99.90
55648;DHT22;45266;48.756;9.246;2023-06-22T06:20:00;22.90;99.90
55648;DHT22;45266;48.756;9.246;2023-06-22T06:21:02;22.90;99.90
55648;DHT22;45266;48.756;9.246;2023-06-22T06:22:04;22.90;99.90
55648;DHT22;45266;48.756;9.246;2023-06-22T06:23:05;22.90;99.90
55648;DHT22;45266;48.756;9.246;2023-06-22T06:24:07;22.90;99.90
55648;DHT22;45266;48.756;9.246;2023-06-22T06:25:09;23.00;99.90
55648;DHT22;45266;48.756;9.246;2023-06-22T06:26:11;23.00;99.90
55648;DHT22;45266;48.756;9.246;2023-06-22T06:27:13;23.00;99.90
55648;DHT22;45266;48.756;9.246;2023-06-22T06:28:15;23.00;99.90
55648;DHT22;45266;48.756;9.246;2023-06-22T06:29:18;23.00;99.90
55648;DHT22;45266;48.756;9.246;2023-06-22T06:30:20;23.00;99.90
55648;DHT22;45266;48.756;9.246;2023-06-22T06:31:22;23.10;99.90
55648;DHT22;45266;48.756;9.246;2023-06-22T06:32:24;23.10;99.90
55648;DHT22;45266;48.756;9.246;2023-06-22T06:33:26;23.10;99.90
55648;DHT22;45266;48.756;9.246;2023-06-22T06:34:28;23.10;99.90
55648;DHT22;45266;48.756;9.246;2023-06-22T06:35:30;23.20;99.90
55648;DHT22;45266;48.756;9.246;2023-06-22T06:36:33;23.20;99.90
55648;DHT22;45266;48.756;9.246;2023-06-22T06:37:39;23.20;99.90
55648;DHT22;45266;48.756;9.246;2023-06-22T06:38:41;23.20;99.90
55648;DHT22;45266;48.756;9.246;2023-06-22T06:39:43;23.40;99.90
55648;DHT22;45266;48.756;9.246;2023-06-22T06:40:45;23.40;99.90
55648;DHT22;45266;48.756;9.246;2023-06-22T06:41:48;23.40;99.90
55648;DHT22;45266;48.756;9.246;2023-06-22T06:42:50;23.50;99.90
55648;DHT22;45266;48.756;9.246;2023-06-22T06:43:52;23.60;99.90
55648;DHT22;45266;48.756;9.246;2023-06-22T06:44:54;23.60;99.90
55648;DHT22;45266;48.756;9.246;2023-06-22T06:45:56;23.70;99.90
55648;DHT22;45266;48.756;9.246;2023-06-22T06:46:58;23.80;99.90
55648;DHT22;45266;48.756;9.246;2023-06-22T06:48:00;23.80;99.90